Time;durP1;ratioP1;P1;durP2;ratioP2;P2;SDS_P1;SDS_P2;PMS_P1;PMS_P2;Temp;Humidity;BMP_temperature;BMP_pressure;BME280_temperature;BME280_humidity;BME280_pressure;Samples;Min_cycle;Max_cycle;Signal;HPM_P1;HPM_P2
2024/02/22 00:01:10;;;;;;;2.17;1.00;;;10.20;99.90;;;;;;4182360;28;20205;-73
2024/02/22 00:03:12;;;;;;;3.40;1.07;;;10.20;99.90;;;;;;4184172;28;20851;-74
2024/02/22 00:05:14;;;;;;;2.63;1.17;;;10.20;99.90;;;;;;4184185;28;20206;-74
2024/02/22 00:07:16;;;;;;;4.57;1.10;;;10.30;99.90;;;;;;4189006;28;20208;-74
2024/02/22 00:09:18;;;;;;;2.63;0.97;;;10.30;99.90;;;;;;4186412;28;20229;-74
2024/02/22 00:11:20;;;;;;;1.50;0.77;;;10.30;99.90;;;;;;4184876;28;20248;-74
2024/02/22 00:13:23;;;;;;;2.03;0.90;;;10.30;99.90;;;;;;4186992;28;20226;-73
2024/02/22 00:15:26;;;;;;;4.73;0.90;;;10.30;99.90;;;;;;4188868;28;20755;-73
2024/02/22 00:17:28;;;;;;;1.57;0.80;;;10.30;99.90;;;;;;4186421;28;20230;-73
2024/02/22 00:19:33;;;;;;;2.60;1.10;;;10.40;99.90;;;;;;4188492;28;20713;-73
2024/02/22 00:21:35;;;;;;;2.20;1.00;;;10.40;99.90;;;;;;4190224;28;20314;-73
2024/02/22 00:23:37;;;;;;;4.43;1.10;;;10.40;99.90;;;;;;4187028;28;20238;-73
2024/02/22 00:25:39;;;;;;;3.60;0.97;;;10.40;99.90;;;;;;4188406;28;20229;-73
2024/02/22 00:27:40;;;;;;;2.23;0.90;;;10.40;99.90;;;;;;4186331;28;20210;-74
2024/02/22 00:29:46;;;;;;;2.07;0.90;;;10.40;99.90;;;;;;4185396;28;20236;-73
2024/02/22 00:31:48;;;;;;;1.97;0.90;;;10.40;99.90;;;;;;4184473;28;20204;-74
2024/02/22 00:33:50;;;;;;;1.70;0.83;;;10.40;99.90;;;;;;4187855;28;20249;-73
2024/02/22 00:35:51;;;;;;;2.33;1.00;;;10.40;99.90;;;;;;4187243;28;20220;-73
2024/02/22 00:37:53;;;;;;;3.00;1.10;;;10.30;99.90;;;;;;4188143;28;20653;-74
2024/02/22 00:39:55;;;;;;;3.67;1.30;;;10.40;99.90;;;;;;4184994;28;20222;-74
2024/02/22 00:41:56;;;;;;;3.07;1.10;;;10.30;99.90;;;;;;4187973;28;20313;-73
2024/02/22 00:43:58;;;;;;;1.90;1.00;;;10.30;99.90;;;;;;4188163;28;20246;-73
2024/02/22 00:46:01;;;;;;;1.57;0.93;;;10.30;99.90;;;;;;4183850;28;20327;-73
2024/02/22 00:48:04;;;;;;;2.07;1.00;;;10.30;99.90;;;;;;4190724;28;20284;-73
2024/02/22 00:50:06;;;;;;;3.07;0.83;;;10.30;99.90;;;;;;4186255;28;20300;-74
2024/02/22 00:52:08;;;;;;;2.43;0.90;;;10.30;99.90;;;;;;4189598;28;20203;-74
2024/02/22 00:54:10;;;;;;;1.20;0.77;;;10.30;99.90;;;;;;4185074;28;20233;-74
2024/02/22 00:56:12;;;;;;;3.40;1.17;;;10.30;99.90;;;;;;4187501;28;20225;-73
2024/02/22 00:58:14;;;;;;;2.33;1.00;;;10.20;99.90;;;;;;4189191;28;20237;-72
2024/02/22 01:00:16;;;;;;;1.80;0.70;;;10.30;99.90;;;;;;4191356;28;20234;-74
2024/02/22 01:02:21;;;;;;;1.17;0.77;;;10.20;99.90;;;;;;4188649;28;20205;-74
2024/02/22 01:04:23;;;;;;;1.93;0.70;;;10.20;99.90;;;;;;4188952;28;20256;-74
2024/02/22 01:06:24;;;;;;;2.63;1.07;;;10.20;99.90;;;;;;4187988;28;20275;-73
2024/02/22 01:08:26;;;;;;;1.00;0.70;;;10.20;99.90;;;;;;4186300;28;20201;-73
2024/02/22 01:10:28;;;;;;;2.77;0.80;;;10.20;99.90;;;;;;4186485;28;20237;-73
2024/02/22 01:12:29;;;;;;;1.33;0.90;;;10.10;99.90;;;;;;4188301;28;20217;-73
2024/02/22 01:14:31;;;;;;;2.57;0.70;;;10.10;99.90;;;;;;4183576;28;20257;-73
2024/02/22 01:16:35;;;;;;;3.17;0.70;;;10.10;99.90;;;;;;4183739;28;20690;-73
2024/02/22 01:18:38;;;;;;;1.60;0.80;;;10.00;99.90;;;;;;4185375;28;20210;-73
2024/02/22 01:20:40;;;;;;;3.10;1.10;;;10.00;99.90;;;;;;4188333;28;20712;-73
2024/02/22 01:22:42;;;;;;;1.60;0.70;;;10.00;99.90;;;;;;4185702;28;20213;-73
2024/02/22 01:24:43;;;;;;;3.13;1.00;;;9.90;99.90;;;;;;4183363;28;20247;-73
2024/02/22 01:26:44;;;;;;;2.00;0.80;;;9.90;99.90;;;;;;4185019;28;20198;-73
2024/02/22 01:28:46;;;;;;;0.90;0.67;;;9.90;99.90;;;;;;4187216;28;20263;-72
2024/02/22 01:30:48;;;;;;;1.20;0.90;;;9.90;99.90;;;;;;4185245;28;20627;-72
2024/02/22 01:32:53;;;;;;;2.90;0.90;;;9.90;99.90;;;;;;4183040;28;20543;-73
2024/02/22 01:34:55;;;;;;;1.10;0.80;;;9.90;99.90;;;;;;4186427;28;20277;-73
2024/02/22 01:36:57;;;;;;;2.70;1.10;;;9.80;99.90;;;;;;4182979;28;20209;-72
2024/02/22 01:39:00;;;;;;;2.23;0.80;;;9.80;99.90;;;;;;4187766;28;20275;-73
2024/02/22 01:41:03;;;;;;;1.23;0.80;;;9.70;99.90;;;;;;4189588;28;20245;-72
2024/02/22 01:43:05;;;;;;;2.03;0.90;;;9.70;99.90;;;;;;4185557;28;20280;-72
2024/02/22 01:45:07;;;;;;;2.03;1.00;;;9.70;99.90;;;;;;4186206;28;20209;-72
2024/02/22 01:47:09;;;;;;;2.10;0.80;;;9.60;99.90;;;;;;4184806;28;20285;-72
2024/02/22 01:49:12;;;;;;;1.50;0.80;;;9.60;99.90;;;;;;4186555;28;20273;-72
2024/02/22 01:51:16;;;;;;;2.60;0.97;;;9.50;99.90;;;;;;4181932;28;20832;-72
2024/02/22 01:53:18;;;;;;;1.47;1.10;;;9.40;99.90;;;;;;4183652;28;20906;-72
2024/02/22 01:55:21;;;;;;;1.90;0.80;;;9.30;99.90;;;;;;4185670;28;20803;-72
2024/02/22 01:57:22;;;;;;;3.93;0.90;;;9.20;99.90;;;;;;4182974;28;20206;-72
2024/02/22 01:59:24;;;;;;;1.60;1.00;;;9.00;99.90;;;;;;4182491;28;20235;-72
2024/02/22 02:01:26;;;;;;;1.20;0.70;;;8.90;99.90;;;;;;4185422;28;20235;-72
2024/02/22 02:03:29;;;;;;;1.27;0.70;;;8.70;99.90;;;;;;4183657;28;20295;-72
2024/02/22 02:05:30;;;;;;;0.83;0.80;;;8.70;99.90;;;;;;4181955;28;20775;-72
2024/02/22 02:07:35;;;;;;;1.57;0.90;;;8.50;99.90;;;;;;4187088;28;20211;-71
2024/02/22 02:09:38;;;;;;;2.13;1.00;;;8.50;99.90;;;;;;4181602;28;20195;-73
2024/02/22 02:11:41;;;;;;;0.97;0.73;;;8.40;99.90;;;;;;4182700;28;20247;-73
2024/02/22 02:13:43;;;;;;;1.57;0.77;;;8.40;99.90;;;;;;4182545;28;20839;-73
2024/02/22 02:15:45;;;;;;;2.07;1.23;;;8.30;99.90;;;;;;4185993;28;20211;-72
2024/02/22 02:17:47;;;;;;;2.27;0.97;;;8.30;99.90;;;;;;4185969;28;20561;-72
2024/02/22 02:19:50;;;;;;;1.53;0.83;;;8.20;99.90;;;;;;4184881;28;20261;-72
2024/02/22 02:22:08;;;;;;;1.53;1.10;;;8.20;99.90;;;;;;4184966;28;20226;-72
2024/02/22 02:24:26;;;;;;;1.70;1.03;;;8.20;99.90;;;;;;4185525;28;20312;-72
2024/02/22 02:26:29;;;;;;;3.03;0.90;;;8.10;99.90;;;;;;4184365;28;20238;-72
2024/02/22 02:28:31;;;;;;;2.90;0.90;;;8.10;99.90;;;;;;4185006;28;20310;-72
2024/02/22 02:30:32;;;;;;;2.30;1.20;;;8.10;99.90;;;;;;4183624;28;20293;-72
2024/02/22 02:32:35;;;;;;;2.00;0.90;;;8.10;99.90;;;;;;4183734;28;20213;-73
2024/02/22 02:34:37;;;;;;;6.80;1.30;;;8.00;99.90;;;;;;4182526;28;20208;-73
2024/02/22 02:36:39;;;;;;;1.83;1.10;;;7.90;99.90;;;;;;4184642;28;20205;-73
2024/02/22 02:38:41;;;;;;;3.47;1.13;;;7.90;99.90;;;;;;4182861;28;20242;-73
2024/02/22 02:40:43;;;;;;;2.73;1.20;;;8.00;99.90;;;;;;4185148;28;20309;-73
2024/02/22 02:42:46;;;;;;;1.80;1.33;;;7.90;99.90;;;;;;4185090;28;20200;-72
2024/02/22 02:44:48;;;;;;;3.33;1.30;;;7.80;99.90;;;;;;4184221;28;20906;-73
2024/02/22 02:46:50;;;;;;;1.93;0.90;;;7.80;99.90;;;;;;4186927;28;20211;-73
2024/02/22 02:48:55;;;;;;;2.83;1.20;;;7.70;99.90;;;;;;4183214;28;20210;-71
2024/02/22 02:50:58;;;;;;;7.97;1.30;;;7.70;99.90;;;;;;4185250;28;20248;-70
2024/02/22 02:53:00;;;;;;;3.60;1.40;;;7.70;99.90;;;;;;4185939;28;20253;-71
2024/02/22 02:55:02;;;;;;;2.70;1.40;;;7.70;99.90;;;;;;4185376;28;20588;-71
2024/02/22 02:57:04;;;;;;;3.70;1.33;;;7.70;99.90;;;;;;4184715;28;20214;-71
2024/02/22 02:59:08;;;;;;;1.63;1.07;;;7.70;99.90;;;;;;4182885;28;20210;-71
2024/02/22 03:01:10;;;;;;;1.80;1.30;;;7.50;99.90;;;;;;4182828;28;20278;-71
2024/02/22 03:03:10;;;;;;;2.37;1.27;;;7.60;99.90;;;;;;4185746;28;20229;-71
2024/02/22 03:05:12;;;;;;;2.70;1.40;;;7.50;99.90;;;;;;4186004;28;20201;-71
2024/02/22 03:07:13;;;;;;;2.20;1.20;;;7.50;99.90;;;;;;4186314;28;20209;-70
2024/02/22 03:09:15;;;;;;;2.33;1.33;;;7.50;99.90;;;;;;4182689;28;20223;-71
2024/02/22 03:11:18;;;;;;;4.17;1.40;;;7.50;99.90;;;;;;4187078;28;20286;-70
2024/02/22 03:13:21;;;;;;;4.80;1.47;;;7.50;99.90;;;;;;4184068;28;20246;-71
2024/02/22 03:15:24;;;;;;;2.87;1.30;;;7.50;99.90;;;;;;4183385;28;20229;-71
2024/02/22 03:17:25;;;;;;;1.80;1.20;;;7.50;99.90;;;;;;4180286;28;21220;-71
2024/02/22 03:19:27;;;;;;;4.97;2.00;;;7.40;99.90;;;;;;4183410;28;20205;-71
2024/02/22 03:21:29;;;;;;;4.10;1.40;;;7.40;99.90;;;;;;4182621;28;20237;-71
2024/02/22 03:23:29;;;;;;;2.47;1.37;;;7.40;99.90;;;;;;4182359;28;20276;-72
2024/02/22 03:25:32;;;;;;;2.93;1.40;;;7.40;99.90;;;;;;4186015;28;20200;-71
2024/02/22 03:27:34;;;;;;;4.77;1.53;;;7.40;99.90;;;;;;4184484;28;20603;-71
2024/02/22 03:29:36;;;;;;;2.77;1.47;;;7.40;99.90;;;;;;4183581;28;20235;-71
2024/02/22 03:31:40;;;;;;;2.70;1.40;;;7.40;99.90;;;;;;4183769;28;20213;-71
2024/02/22 03:33:42;;;;;;;2.23;1.60;;;7.30;99.90;;;;;;4183694;28;20581;-71
2024/02/22 03:35:43;;;;;;;3.00;1.70;;;7.30;99.90;;;;;;4181728;28;20217;-72
2024/02/22 03:37:45;;;;;;;2.83;1.70;;;7.30;99.90;;;;;;4182357;28;20233;-71
2024/02/22 03:39:49;;;;;;;3.83;1.70;;;7.30;99.90;;;;;;4182975;28;20255;-72
2024/02/22 03:41:53;;;;;;;3.37;1.50;;;7.30;99.90;;;;;;4182802;28;20202;-71
2024/02/22 03:43:55;;;;;;;4.13;1.60;;;7.30;99.90;;;;;;4184662;28;20226;-73
2024/02/22 03:45:57;;;;;;;3.93;1.90;;;7.30;99.90;;;;;;4181212;28;20209;-72
2024/02/22 03:48:00;;;;;;;2.37;1.70;;;7.30;99.90;;;;;;4187951;28;20236;-72
2024/02/22 03:50:04;;;;;;;3.03;1.80;;;7.20;99.90;;;;;;4181957;28;20217;-71
2024/02/22 03:52:06;;;;;;;2.17;1.50;;;7.30;99.90;;;;;;4186054;28;20237;-72
2024/02/22 03:54:08;;;;;;;3.03;1.57;;;7.30;99.90;;;;;;4188820;28;20229;-72
2024/02/22 03:56:10;;;;;;;2.33;1.40;;;7.30;99.90;;;;;;4181928;28;20214;-72
2024/02/22 03:58:12;;;;;;;1.83;1.30;;;7.20;99.90;;;;;;4181252;28;20210;-72
2024/02/22 04:00:15;;;;;;;2.50;1.60;;;7.20;99.90;;;;;;4184562;28;20248;-72
2024/02/22 04:02:17;;;;;;;2.27;1.40;;;7.30;99.90;;;;;;4181136;28;20202;-72
2024/02/22 04:04:20;;;;;;;2.10;1.40;;;7.30;99.90;;;;;;4180847;28;20238;-72
2024/02/22 04:06:22;;;;;;;2.37;1.33;;;7.30;99.90;;;;;;4184636;28;20947;-72
2024/02/22 04:08:24;;;;;;;2.13;1.40;;;7.30;99.90;;;;;;4185094;28;20215;-72
2024/02/22 04:10:26;;;;;;;2.80;1.30;;;7.30;99.90;;;;;;4183257;28;20241;-72
2024/02/22 04:12:28;;;;;;;1.80;1.50;;;7.30;99.90;;;;;;4184142;28;20237;-72
2024/02/22 04:14:29;;;;;;;1.77;1.30;;;7.30;99.90;;;;;;4184311;28;20234;-72
2024/02/22 04:16:30;;;;;;;2.00;1.27;;;7.30;99.90;;;;;;4182796;28;20697;-72
2024/02/22 04:18:32;;;;;;;2.10;1.50;;;7.30;99.90;;;;;;4183141;28;20293;-71
2024/02/22 04:20:36;;;;;;;2.97;1.80;;;7.30;99.90;;;;;;4184376;28;20229;-72
2024/02/22 04:22:46;;;;;;;2.53;1.27;;;7.20;99.90;;;;;;4182781;28;20298;-72
2024/02/22 04:24:48;;;;;;;1.77;1.50;;;7.30;99.90;;;;;;4183702;28;20202;-72
2024/02/22 04:26:52;;;;;;;2.20;1.40;;;7.30;99.90;;;;;;4179867;28;20198;-72
2024/02/22 04:28:54;;;;;;;2.40;1.30;;;7.30;99.90;;;;;;4187777;28;20878;-72
2024/02/22 04:30:56;;;;;;;3.60;1.30;;;7.30;99.90;;;;;;4184257;28;20278;-72
2024/02/22 04:32:58;;;;;;;2.43;1.27;;;7.20;99.90;;;;;;4182867;28;20301;-71
2024/02/22 04:35:00;;;;;;;1.50;1.10;;;7.30;99.90;;;;;;4185731;28;20237;-72
2024/02/22 04:37:04;;;;;;;1.83;1.20;;;7.30;99.90;;;;;;4185847;28;20206;-72
2024/02/22 04:39:07;;;;;;;2.83;1.47;;;7.30;99.90;;;;;;4189472;28;20232;-72
2024/02/22 04:41:09;;;;;;;5.63;1.30;;;7.30;99.90;;;;;;4183464;28;20229;-71
2024/02/22 04:43:13;;;;;;;2.70;1.30;;;7.30;99.90;;;;;;4183380;28;20255;-71
2024/02/22 04:45:15;;;;;;;1.43;0.93;;;7.30;99.90;;;;;;4181359;28;20203;-72
2024/02/22 04:47:16;;;;;;;2.23;1.10;;;7.30;99.90;;;;;;4184502;28;20299;-71
2024/02/22 04:49:18;;;;;;;2.43;1.20;;;7.30;99.90;;;;;;4183876;28;20281;-72
2024/02/22 04:51:20;;;;;;;2.20;1.27;;;7.30;99.90;;;;;;4184075;28;20206;-72
2024/02/22 04:53:24;;;;;;;2.20;1.20;;;7.30;99.90;;;;;;4186276;28;20236;-72
2024/02/22 04:55:26;;;;;;;1.77;1.00;;;7.30;99.90;;;;;;4188574;28;20207;-72
2024/02/22 04:57:27;;;;;;;4.03;1.20;;;7.30;99.90;;;;;;4186713;28;20277;-71
2024/02/22 04:59:29;;;;;;;2.00;1.13;;;7.40;99.90;;;;;;4186875;28;20210;-71
2024/02/22 05:01:31;;;;;;;1.97;1.13;;;7.30;99.90;;;;;;4185664;28;20313;-72
2024/02/22 05:03:34;;;;;;;3.07;1.03;;;7.30;99.90;;;;;;4189168;28;20229;-72
2024/02/22 05:05:36;;;;;;;2.50;1.27;;;7.40;99.90;;;;;;4184249;28;20206;-72
2024/02/22 05:07:40;;;;;;;2.93;1.40;;;7.30;99.90;;;;;;4183998;28;20571;-71
2024/02/22 05:09:44;;;;;;;4.43;2.00;;;7.40;99.90;;;;;;4185529;28;20290;-71
2024/02/22 05:11:46;;;;;;;3.77;1.40;;;7.40;99.90;;;;;;4183313;28;20289;-72
2024/02/22 05:13:50;;;;;;;1.57;1.17;;;7.40;99.90;;;;;;4184476;28;20226;-71
2024/02/22 05:15:51;;;;;;;2.30;1.20;;;7.40;99.90;;;;;;4183708;28;20217;-72
2024/02/22 05:17:53;;;;;;;1.73;1.10;;;7.40;99.90;;;;;;4190160;28;20666;-74
2024/02/22 05:19:55;;;;;;;3.33;1.20;;;7.40;99.90;;;;;;4186516;28;20285;-74
2024/02/22 05:21:57;;;;;;;2.80;1.10;;;7.40;99.90;;;;;;4187388;28;20198;-71
2024/02/22 05:24:00;;;;;;;1.50;1.13;;;7.40;99.90;;;;;;4188489;28;20684;-70
2024/02/22 05:26:03;;;;;;;3.23;1.30;;;7.30;99.90;;;;;;4183413;28;20210;-71
2024/02/22 05:28:06;;;;;;;1.53;1.13;;;7.30;99.90;;;;;;4182487;28;20675;-71
2024/02/22 05:30:09;;;;;;;1.70;1.13;;;7.40;99.90;;;;;;4187309;28;20210;-71
2024/02/22 05:32:11;;;;;;;2.87;1.33;;;7.40;99.90;;;;;;4186178;28;20662;-71
2024/02/22 05:34:13;;;;;;;2.37;1.23;;;7.40;99.90;;;;;;4183506;28;20252;-70
2024/02/22 05:36:15;;;;;;;1.87;1.20;;;7.30;99.90;;;;;;4184780;28;20205;-70
2024/02/22 05:38:17;;;;;;;3.30;1.60;;;7.30;99.90;;;;;;4185746;28;20230;-71
2024/02/22 05:40:19;;;;;;;2.77;1.43;;;7.30;99.90;;;;;;4185929;28;20203;-71
2024/02/22 05:42:21;;;;;;;2.83;1.37;;;7.30;99.90;;;;;;4183607;28;20229;-71
2024/02/22 05:44:23;;;;;;;2.20;1.40;;;7.30;99.90;;;;;;4182260;28;20250;-71
2024/02/22 05:46:24;;;;;;;1.93;1.27;;;7.30;99.90;;;;;;4183939;28;20213;-72
2024/02/22 05:48:26;;;;;;;2.80;1.20;;;7.30;99.90;;;;;;4182890;28;20293;-70
2024/02/22 05:50:28;;;;;;;2.80;1.50;;;7.30;99.90;;;;;;4186273;28;20622;-71
2024/02/22 05:52:30;;;;;;;2.50;1.30;;;7.30;99.90;;;;;;4185458;28;20207;-70
2024/02/22 05:54:32;;;;;;;2.23;1.50;;;7.30;99.90;;;;;;4182115;28;20736;-70
2024/02/22 05:56:34;;;;;;;2.30;1.67;;;7.30;99.90;;;;;;4181929;28;20238;-71
2024/02/22 05:58:37;;;;;;;2.80;1.40;;;7.40;99.90;;;;;;4185548;28;20744;-71
2024/02/22 06:00:40;;;;;;;3.63;2.20;;;7.40;99.90;;;;;;4184611;28;20713;-72
2024/02/22 06:02:42;;;;;;;6.67;3.23;;;7.30;99.90;;;;;;4181989;28;20213;-71
2024/02/22 06:04:44;;;;;;;3.27;2.20;;;7.40;99.90;;;;;;4182764;28;20570;-71
2024/02/22 06:06:46;;;;;;;4.63;1.77;;;7.30;99.90;;;;;;4179315;28;20218;-71
2024/02/22 06:08:48;;;;;;;4.70;1.67;;;7.30;99.90;;;;;;4182400;28;20294;-73
2024/02/22 06:10:51;;;;;;;3.73;1.60;;;7.40;99.90;;;;;;4182491;28;20236;-73
2024/02/22 06:12:52;;;;;;;1.67;1.37;;;7.30;99.90;;;;;;4184549;28;20226;-72
2024/02/22 06:14:56;;;;;;;4.70;1.60;;;7.40;99.90;;;;;;4182410;28;20682;-71
2024/02/22 06:16:58;;;;;;;3.57;1.50;;;7.30;99.90;;;;;;4182178;28;20209;-70
2024/02/22 06:18:59;;;;;;;3.13;1.57;;;7.30;99.90;;;;;;4187080;28;20205;-70
2024/02/22 06:21:02;;;;;;;3.13;1.53;;;7.30;99.90;;;;;;4184173;28;20633;-71
2024/02/22 06:23:04;;;;;;;4.07;2.07;;;7.40;99.90;;;;;;4185018;28;20281;-70
2024/02/22 06:25:07;;;;;;;6.03;2.83;;;7.30;99.90;;;;;;4184760;28;20206;-72
2024/02/22 06:27:09;;;;;;;2.60;1.50;;;7.40;99.90;;;;;;4187095;28;20216;-71
2024/02/22 06:29:11;;;;;;;2.27;1.60;;;7.30;99.90;;;;;;4185249;28;20202;-71
2024/02/22 06:31:15;;;;;;;5.13;1.60;;;7.40;99.90;;;;;;4183424;28;20210;-72
2024/02/22 06:33:16;;;;;;;2.00;1.40;;;7.40;99.90;;;;;;4181154;28;20246;-72
2024/02/22 06:35:18;;;;;;;2.67;1.33;;;7.40;99.90;;;;;;4183688;28;20202;-71
2024/02/22 06:37:20;;;;;;;2.57;1.30;;;7.40;99.90;;;;;;4184918;28;20237;-71
2024/02/22 06:39:22;;;;;;;2.43;1.50;;;7.40;99.90;;;;;;4182928;28;20306;-72
2024/02/22 06:41:24;;;;;;;2.47;1.50;;;7.40;99.90;;;;;;4183746;28;20698;-71
2024/02/22 06:43:26;;;;;;;3.67;2.17;;;7.40;99.90;;;;;;4186268;28;20647;-71
2024/02/22 06:45:27;;;;;;;3.73;1.90;;;7.40;99.90;;;;;;4183525;28;20206;-71
2024/02/22 06:47:30;;;;;;;1.90;1.20;;;7.40;99.90;;;;;;4182543;28;20365;-72
2024/02/22 06:49:32;;;;;;;2.77;1.70;;;7.40;99.90;;;;;;4184994;28;20648;-71
2024/02/22 06:51:34;;;;;;;1.73;1.40;;;7.40;99.90;;;;;;4183930;28;20813;-71
2024/02/22 06:53:36;;;;;;;3.10;1.40;;;7.40;99.90;;;;;;4183518;28;20757;-71
2024/02/22 06:55:38;;;;;;;2.93;1.30;;;7.50;99.90;;;;;;4183246;28;20229;-72
2024/02/22 06:57:40;;;;;;;2.93;1.40;;;7.50;99.90;;;;;;4185451;28;20237;-72
2024/02/22 06:59:42;;;;;;;2.47;1.40;;;7.50;99.90;;;;;;4183692;28;20238;-71
2024/02/22 07:01:44;;;;;;;1.83;1.23;;;7.50;99.90;;;;;;4181138;28;20345;-71
2024/02/22 07:03:47;;;;;;;3.83;1.23;;;7.50;99.90;;;;;;4183611;28;20232;-72
2024/02/22 07:05:50;;;;;;;2.67;1.40;;;7.50;99.90;;;;;;4182702;28;20238;-75
2024/02/22 07:07:51;;;;;;;1.80;1.20;;;7.50;99.90;;;;;;4184331;28;20203;-73
2024/02/22 07:09:55;;;;;;;6.30;1.50;;;7.50;99.90;;;;;;4183046;28;20227;-77
2024/02/22 07:11:57;;;;;;;2.73;1.30;;;7.50;99.90;;;;;;4182578;28;20216;-72
2024/02/22 07:13:59;;;;;;;2.23;1.13;;;7.60;99.90;;;;;;4181214;28;20226;-72
2024/02/22 07:16:01;;;;;;;1.70;1.40;;;7.60;99.90;;;;;;4169020;28;20282;-73
2024/02/22 07:18:03;;;;;;;3.00;1.47;;;7.60;99.90;;;;;;4180854;28;20737;-72
2024/02/22 07:20:07;;;;;;;1.23;1.10;;;7.60;99.90;;;;;;4183430;28;20288;-73
2024/02/22 07:22:09;;;;;;;1.87;1.37;;;7.60;99.90;;;;;;4183178;28;20255;-72
2024/02/22 07:24:11;;;;;;;2.80;1.43;;;7.60;99.90;;;;;;4182882;28;20228;-72
2024/02/22 07:26:14;;;;;;;2.10;1.57;;;7.60;99.90;;;;;;4183339;28;20302;-72
2024/02/22 07:28:15;;;;;;;4.57;1.50;;;7.60;99.90;;;;;;4188090;28;20269;-72
2024/02/22 07:30:18;;;;;;;3.50;1.50;;;7.70;99.90;;;;;;4185681;28;20200;-72
2024/02/22 07:32:20;;;;;;;2.07;1.30;;;7.70;99.90;;;;;;4183583;28;20662;-72
2024/02/22 07:34:22;;;;;;;1.90;1.27;;;7.70;99.90;;;;;;4182394;28;20295;-72
2024/02/22 07:36:28;;;;;;;3.20;1.40;;;7.70;99.90;;;;;;4185370;28;20204;-72
2024/02/22 07:38:31;;;;;;;3.17;1.53;;;7.80;99.90;;;;;;4188280;28;20225;-72
2024/02/22 07:40:35;;;;;;;3.97;1.23;;;7.70;99.90;;;;;;4183588;28;20238;-72
2024/02/22 07:42:36;;;;;;;3.83;1.20;;;7.80;99.90;;;;;;4183473;28;20744;-72
2024/02/22 07:44:38;;;;;;;2.57;1.07;;;7.80;99.90;;;;;;4185753;28;20202;-72
2024/02/22 07:46:39;;;;;;;2.80;1.30;;;7.80;99.90;;;;;;4184609;28;20748;-71
2024/02/22 07:48:41;;;;;;;3.10;1.30;;;7.80;99.90;;;;;;4183974;28;20206;-72
2024/02/22 07:50:43;;;;;;;2.23;1.43;;;7.80;99.90;;;;;;4183881;28;20406;-72
2024/02/22 07:52:45;;;;;;;2.33;1.33;;;7.90;99.90;;;;;;4184587;28;20666;-72
2024/02/22 07:54:47;;;;;;;3.03;1.20;;;7.90;99.90;;;;;;4182962;28;20209;-71
2024/02/22 07:56:49;;;;;;;1.73;1.10;;;7.90;99.90;;;;;;4182435;28;20700;-72
2024/02/22 07:58:53;;;;;;;2.00;1.13;;;7.90;99.90;;;;;;4184374;28;20302;-72
2024/02/22 08:00:58;;;;;;;2.37;1.20;;;8.00;99.90;;;;;;4178305;28;20203;-72
2024/02/22 08:03:00;;;;;;;1.80;1.10;;;8.00;99.90;;;;;;4179707;28;20231;-72
2024/02/22 08:05:02;;;;;;;1.47;1.10;;;8.00;99.90;;;;;;4181384;28;20204;-72
2024/02/22 08:07:04;;;;;;;1.70;1.17;;;8.00;99.90;;;;;;4180246;28;21635;-72
2024/02/22 08:09:07;;;;;;;2.73;1.23;;;8.10;99.90;;;;;;4181819;28;20196;-72
2024/02/22 08:11:11;;;;;;;2.17;1.10;;;8.10;99.90;;;;;;4185044;28;20732;-71
2024/02/22 08:13:13;;;;;;;1.33;1.13;;;8.10;99.90;;;;;;4182516;28;20710;-71
2024/02/22 08:15:15;;;;;;;1.97;1.30;;;8.10;99.90;;;;;;4181638;28;20229;-71
2024/02/22 08:17:17;;;;;;;1.73;1.10;;;8.10;99.90;;;;;;4182659;28;20207;-71
2024/02/22 08:19:19;;;;;;;1.67;1.30;;;8.20;99.90;;;;;;4185723;28;20211;-72
2024/02/22 08:21:21;;;;;;;4.17;1.20;;;8.20;99.90;;;;;;4182051;28;20220;-72
2024/02/22 08:23:23;;;;;;;2.77;1.20;;;8.20;99.90;;;;;;4183028;28;20250;-70
2024/02/22 08:25:26;;;;;;;1.40;1.10;;;8.20;99.90;;;;;;4185133;28;20210;-70
2024/02/22 08:27:28;;;;;;;1.57;1.17;;;8.30;99.90;;;;;;4184158;28;20238;-70
2024/02/22 08:29:29;;;;;;;1.83;1.30;;;8.30;99.90;;;;;;4185196;28;20219;-70
2024/02/22 08:31:31;;;;;;;1.53;1.07;;;8.30;99.90;;;;;;4185367;28;20191;-70
2024/02/22 08:33:33;;;;;;;1.67;1.07;;;8.40;99.90;;;;;;4188026;28;20310;-69
2024/02/22 08:35:35;;;;;;;2.10;1.20;;;8.40;99.90;;;;;;4187322;28;20200;-70
2024/02/22 08:37:37;;;;;;;1.73;1.00;;;8.40;99.90;;;;;;4190257;28;20226;-70
2024/02/22 08:39:39;;;;;;;1.73;1.10;;;8.40;99.90;;;;;;4187790;28;20769;-70
2024/02/22 08:41:42;;;;;;;2.47;1.20;;;8.50;99.90;;;;;;4187128;28;20246;-70
2024/02/22 08:43:44;;;;;;;1.80;1.00;;;8.50;99.90;;;;;;4187953;28;20280;-70
2024/02/22 08:45:46;;;;;;;2.27;1.43;;;8.60;99.90;;;;;;4185325;28;20245;-70
2024/02/22 08:47:48;;;;;;;1.37;1.10;;;8.60;99.90;;;;;;4186802;28;20232;-70
2024/02/22 08:49:49;;;;;;;2.77;1.10;;;8.60;99.90;;;;;;4188506;28;20687;-70
2024/02/22 08:51:51;;;;;;;3.10;1.30;;;8.60;99.90;;;;;;4187142;28;20307;-70
2024/02/22 08:53:52;;;;;;;1.87;0.80;;;8.60;99.90;;;;;;4186413;28;20277;-70
2024/02/22 08:55:54;;;;;;;2.30;0.80;;;8.70;99.90;;;;;;4186241;28;20217;-70
2024/02/22 08:57:57;;;;;;;2.40;0.90;;;8.70;99.90;;;;;;4187737;28;20207;-70
2024/02/22 08:59:59;;;;;;;1.83;1.23;;;8.70;99.90;;;;;;4185208;28;20806;-68
2024/02/22 09:02:01;;;;;;;1.50;1.00;;;8.70;99.90;;;;;;4185525;28;20320;-71
2024/02/22 09:04:03;;;;;;;1.40;0.90;;;8.80;99.90;;;;;;4186311;28;20256;-71
2024/02/22 09:06:06;;;;;;;1.20;0.80;;;8.80;99.90;;;;;;4186702;28;20209;-73
2024/02/22 09:08:08;;;;;;;2.07;1.07;;;8.90;99.90;;;;;;4184969;28;20589;-72
2024/02/22 09:10:10;;;;;;;1.73;1.10;;;8.90;99.90;;;;;;4189025;28;20235;-72
2024/02/22 09:12:13;;;;;;;1.33;0.93;;;8.90;99.90;;;;;;4185735;28;20285;-72
2024/02/22 09:14:16;;;;;;;1.20;1.00;;;9.00;99.90;;;;;;4185287;28;20311;-72
2024/02/22 09:16:18;;;;;;;3.73;0.83;;;9.00;99.90;;;;;;4187595;28;20331;-72
2024/02/22 09:18:20;;;;;;;1.10;0.83;;;9.00;99.90;;;;;;4184687;28;20652;-72
2024/02/22 09:20:22;;;;;;;0.83;0.80;;;9.10;99.90;;;;;;4184664;28;20204;-71
2024/02/22 09:22:23;;;;;;;1.27;0.77;;;9.20;99.90;;;;;;4187635;28;20244;-71
2024/02/22 09:24:25;;;;;;;0.80;0.67;;;9.30;99.90;;;;;;4184240;28;20595;-71
2024/02/22 09:26:28;;;;;;;1.23;0.83;;;9.30;99.90;;;;;;4184148;28;20213;-72
2024/02/22 09:28:29;;;;;;;0.77;0.77;;;9.40;99.90;;;;;;4187282;28;20324;-72
2024/02/22 09:30:33;;;;;;;0.60;0.60;;;9.40;99.90;;;;;;4185927;28;20213;-72
2024/02/22 09:32:35;;;;;;;1.27;0.50;;;9.40;99.90;;;;;;4183888;28;20652;-72
2024/02/22 09:34:37;;;;;;;1.33;0.60;;;9.50;99.90;;;;;;4185624;28;20210;-72
2024/02/22 09:36:40;;;;;;;0.60;0.60;;;9.50;99.90;;;;;;4191757;28;20212;-72
2024/02/22 09:38:42;;;;;;;0.80;0.60;;;9.50;99.90;;;;;;4184952;28;20197;-72
2024/02/22 09:40:45;;;;;;;0.93;0.60;;;9.50;99.90;;;;;;4186574;28;20828;-71
2024/02/22 09:42:47;;;;;;;1.90;0.40;;;9.50;99.90;;;;;;4187069;28;20315;-72
2024/02/22 09:44:49;;;;;;;0.50;0.50;;;9.60;99.90;;;;;;4184316;28;20226;-71
2024/02/22 09:46:53;;;;;;;1.43;0.50;;;9.60;99.90;;;;;;4186323;28;20201;-71
2024/02/22 09:48:55;;;;;;;1.60;0.67;;;9.60;99.90;;;;;;4183845;28;20194;-71
2024/02/22 09:50:58;;;;;;;0.60;0.60;;;9.70;99.90;;;;;;4185782;28;20578;-72
2024/02/22 09:53:00;;;;;;;0.67;0.60;;;9.80;99.90;;;;;;4191799;28;20684;-72
2024/02/22 09:55:01;;;;;;;1.13;0.60;;;9.80;99.90;;;;;;4182061;28;20821;-72
2024/02/22 09:57:03;;;;;;;0.70;0.50;;;9.80;99.90;;;;;;4183004;28;20678;-73
2024/02/22 09:59:05;;;;;;;1.73;0.57;;;10.00;99.90;;;;;;4186441;28;20256;-72
2024/02/22 10:01:08;;;;;;;0.53;0.50;;;10.00;99.90;;;;;;4182828;28;20298;-73
2024/02/22 10:03:14;;;;;;;0.50;0.40;;;10.00;99.90;;;;;;4185350;28;20267;-72
2024/02/22 10:05:16;;;;;;;2.10;0.60;;;10.00;99.90;;;;;;4181833;28;20634;-73
2024/02/22 10:07:22;;;;;;;1.37;0.67;;;10.10;99.90;;;;;;4186697;28;20214;-71
2024/02/22 10:09:23;;;;;;;2.90;0.60;;;10.20;99.90;;;;;;4182737;28;20646;-72
2024/02/22 10:11:25;;;;;;;1.00;0.50;;;10.20;99.90;;;;;;4183553;28;20783;-73
2024/02/22 10:13:27;;;;;;;0.70;0.40;;;10.30;99.90;;;;;;4183747;28;21081;-71
2024/02/22 10:15:33;;;;;;;0.67;0.53;;;10.40;99.90;;;;;;4183017;28;20206;-75
2024/02/22 10:17:37;;;;;;;1.13;0.60;;;10.40;99.90;;;;;;4187344;28;20294;-76
2024/02/22 10:19:41;;;;;;;1.33;0.77;;;10.50;99.90;;;;;;4187638;28;20220;-73
2024/02/22 10:21:45;;;;;;;0.70;0.53;;;10.60;99.90;;;;;;4184654;28;20674;-73
2024/02/22 10:23:54;;;;;;;1.00;0.60;;;10.60;99.90;;;;;;4182982;28;20226;-73
2024/02/22 10:26:05;;;;;;;1.20;0.50;;;10.70;99.90;;;;;;4187904;28;20206;-73
2024/02/22 10:28:08;;;;;;;0.60;0.60;;;10.70;99.90;;;;;;4184071;28;20237;-73
2024/02/22 10:30:11;;;;;;;0.40;0.40;;;10.70;99.90;;;;;;4181047;28;20220;-73
2024/02/22 10:32:18;;;;;;;0.30;0.30;;;10.80;99.90;;;;;;4184253;28;20678;-77
2024/02/22 10:34:21;;;;;;;0.30;0.30;;;10.80;99.90;;;;;;4186791;28;20296;-73
2024/02/22 10:36:26;;;;;;;1.80;0.50;;;10.80;99.90;;;;;;4188021;28;20251;-73
2024/02/22 10:38:30;;;;;;;0.40;0.37;;;10.90;99.90;;;;;;4187360;28;20214;-73
2024/02/22 10:40:33;;;;;;;0.30;0.30;;;10.90;99.90;;;;;;4186106;28;20204;-70
2024/02/22 10:42:36;;;;;;;0.80;0.50;;;11.00;99.90;;;;;;4185960;28;20712;-71
2024/02/22 10:44:38;;;;;;;0.80;0.50;;;11.00;99.90;;;;;;4183350;28;20740;-71